createdAt,value
2022-10-02T00:01:11.377Z,0.20
2022-10-02T00:04:37.517Z,0.20
2022-10-02T00:08:03.057Z,0.10
2022-10-02T00:11:34.152Z,0.10
2022-10-02T00:15:13.500Z,0.10
2022-10-02T00:18:38.050Z,0.10
2022-10-02T00:22:18.376Z,0.10
2022-10-02T00:25:47.420Z,0.20
2022-10-02T00:29:09.645Z,0.17
2022-10-02T00:32:41.131Z,0.20
2022-10-02T00:36:22.238Z,0.22
2022-10-02T00:39:50.311Z,0.30
2022-10-02T00:43:15.699Z,0.20
2022-10-02T00:46:58.369Z,0.35
2022-10-02T00:50:34.176Z,0.30
2022-10-02T00:54:14.334Z,0.10
2022-10-02T00:58:10.367Z,0.15
2022-10-02T01:05:15.925Z,0.55
2022-10-02T01:08:38.821Z,0.10
2022-10-02T01:12:01.620Z,0.30
2022-10-02T01:15:29.973Z,0.30
2022-10-02T01:18:52.303Z,0.30
2022-10-02T01:22:24.614Z,0.30
2022-10-02T01:25:47.305Z,0.32
2022-10-02T01:29:09.488Z,0.30
2022-10-02T01:32:33.306Z,0.40
2022-10-02T01:35:55.798Z,0.20
2022-10-02T01:39:18.358Z,0.28
2022-10-02T01:42:40.728Z,0.20
2022-10-02T01:46:31.014Z,0.30
2022-10-02T01:50:14.891Z,0.30
2022-10-02T01:53:47.302Z,0.40
2022-10-02T01:57:26.823Z,0.30
2022-10-02T02:01:23.518Z,0.40
2022-10-02T02:05:24.025Z,0.70
2022-10-02T02:09:05.919Z,0.30
2022-10-02T02:12:41.730Z,0.43
2022-10-02T02:16:08.718Z,0.38
2022-10-02T02:19:40.727Z,0.35
2022-10-02T02:23:17.226Z,0.40
2022-10-02T02:26:43.638Z,0.47
2022-10-02T02:30:09.254Z,0.55
2022-10-02T02:33:43.445Z,0.30
2022-10-02T02:37:11.686Z,0.52
2022-10-02T02:40:37.589Z,0.60
2022-10-02T02:44:13.786Z,0.65
2022-10-02T02:47:46.324Z,0.60
2022-10-02T02:51:31.880Z,0.60
2022-10-02T02:55:00.485Z,0.52
2022-10-02T02:58:28.283Z,0.30
2022-10-02T03:01:50.479Z,0.63
2022-10-02T03:05:17.966Z,0.68
2022-10-02T03:08:40.203Z,0.63
2022-10-02T03:12:14.344Z,0.68
2022-10-02T03:15:51.656Z,0.60
2022-10-02T03:19:42.768Z,0.50
2022-10-02T03:23:20.865Z,0.40
2022-10-02T03:27:05.678Z,0.75
2022-10-02T03:30:28.800Z,0.70
2022-10-02T03:33:53.658Z,0.90
2022-10-02T03:37:17.107Z,0.63
2022-10-02T03:40:39.576Z,0.80
2022-10-02T03:44:02.073Z,0.57
2022-10-02T03:47:24.203Z,0.60
2022-10-02T03:50:46.617Z,0.85
2022-10-02T03:54:20.122Z,0.73
2022-10-02T03:57:45.145Z,1.15
2022-10-02T04:01:18.576Z,0.80
2022-10-02T04:04:56.017Z,0.80
2022-10-02T04:08:31.543Z,0.88
2022-10-02T04:15:22.726Z,0.82
2022-10-02T04:18:58.528Z,0.68
2022-10-02T04:22:40.973Z,0.73
2022-10-02T04:26:35.181Z,0.80
2022-10-02T04:30:05.373Z,0.98
2022-10-02T04:33:27.554Z,1.30
2022-10-02T04:37:09.571Z,0.50
2022-10-02T04:40:50.258Z,1.27
2022-10-02T04:44:18.165Z,0.82
2022-10-02T04:48:06.505Z,0.70
2022-10-02T04:51:46.902Z,0.80
2022-10-02T04:55:21.091Z,1.63
2022-10-02T04:58:52.121Z,0.73
2022-10-02T05:02:40.598Z,0.98
2022-10-02T05:06:45.445Z,0.80
2022-10-02T05:10:19.472Z,0.82
2022-10-02T05:14:12.394Z,0.70
2022-10-02T05:18:17.754Z,0.80
2022-10-02T05:21:58.641Z,0.63
2022-10-02T05:25:57.109Z,0.50
2022-10-02T05:29:31.276Z,0.80
2022-10-02T05:33:02.577Z,0.70
2022-10-02T05:36:42.145Z,0.68
2022-10-02T05:40:39.650Z,0.65
2022-10-02T05:44:12.361Z,1.00
2022-10-02T05:47:41.203Z,0.80
2022-10-02T05:51:18.298Z,0.80
2022-10-02T05:54:52.439Z,0.65
2022-10-02T05:58:25.336Z,0.85
2022-10-02T06:01:51.227Z,0.70
2022-10-02T06:05:25.710Z,0.63
2022-10-02T06:09:00.687Z,0.70
2022-10-02T06:12:38.481Z,0.60
2022-10-02T06:16:08.659Z,0.60
2022-10-02T06:19:38.892Z,0.77
2022-10-02T06:23:38.982Z,1.10
2022-10-02T06:27:12.524Z,0.70
2022-10-02T06:30:40.284Z,0.63
2022-10-02T06:34:02.741Z,0.50
2022-10-02T06:37:44.518Z,0.60
2022-10-02T06:41:25.229Z,0.40
2022-10-02T06:45:20.450Z,0.75
2022-10-02T06:48:48.485Z,0.57
2022-10-02T06:52:35.825Z,0.70
2022-10-02T06:56:03.048Z,0.45
2022-10-02T07:00:05.734Z,0.60
2022-10-02T07:03:55.544Z,0.40
2022-10-02T07:08:03.984Z,0.60
2022-10-02T07:11:39.586Z,0.70
2022-10-02T07:15:19.672Z,0.45
2022-10-02T07:18:53.689Z,0.50
2022-10-02T07:22:46.213Z,0.68
2022-10-02T07:26:23.091Z,0.52
2022-10-02T07:29:51.201Z,0.68
2022-10-02T07:33:52.146Z,0.80
2022-10-02T07:37:55.581Z,0.70
2022-10-02T07:41:33.541Z,0.50
2022-10-02T07:45:22.809Z,0.63
2022-10-02T07:48:53.941Z,0.60
2022-10-02T07:52:34.330Z,0.65
2022-10-02T07:55:57.419Z,0.80
2022-10-02T07:59:20.689Z,1.23
2022-10-02T08:02:55.018Z,0.70
2022-10-02T08:06:18.544Z,0.68
2022-10-02T08:09:48.842Z,0.82
2022-10-02T08:13:21.048Z,0.63
2022-10-02T08:16:48.621Z,0.57
2022-10-02T08:20:28.567Z,0.68
2022-10-02T08:24:24.411Z,0.68
2022-10-02T08:28:04.594Z,0.60
2022-10-02T08:31:27.511Z,0.68
2022-10-02T08:34:50.016Z,0.63
2022-10-02T08:38:19.868Z,0.50
2022-10-02T08:42:09.832Z,0.50
2022-10-02T08:45:54.016Z,0.60
2022-10-02T08:49:40.745Z,0.63
2022-10-02T08:53:27.565Z,1.00
2022-10-02T08:56:52.461Z,0.82
2022-10-02T09:00:48.622Z,0.90
2022-10-02T09:04:47.824Z,0.73
2022-10-02T09:08:47.730Z,0.50
2022-10-02T09:12:30.205Z,0.80
2022-10-02T09:15:52.287Z,0.50
2022-10-02T09:19:39.787Z,0.88
2022-10-02T09:23:20.415Z,0.70
2022-10-02T09:27:07.451Z,0.80
2022-10-02T09:31:06.932Z,0.65
2022-10-02T09:35:06.793Z,0.82
2022-10-02T09:38:58.786Z,0.75
2022-10-02T09:42:58.226Z,0.50
2022-10-02T09:46:30.922Z,0.70
2022-10-02T09:49:57.487Z,0.80
2022-10-02T09:53:51.301Z,0.75
2022-10-02T09:57:42.700Z,0.90
2022-10-02T10:01:24.462Z,0.63
2022-10-02T10:05:08.881Z,0.80
2022-10-02T10:08:49.835Z,0.60
2022-10-02T10:12:18.457Z,0.80
2022-10-02T10:15:43.639Z,0.60
2022-10-02T10:22:51.216Z,0.93
2022-10-02T10:26:34.656Z,0.60
2022-10-02T10:30:13.143Z,0.52
2022-10-02T10:33:53.393Z,0.80
2022-10-02T10:38:09.404Z,0.50
2022-10-02T10:41:43.125Z,0.47
2022-10-02T10:45:18.137Z,0.40
2022-10-02T10:49:03.997Z,0.52
2022-10-02T10:56:34.761Z,0.70
2022-10-02T10:59:57.004Z,0.57
2022-10-02T11:03:29.302Z,0.75
2022-10-02T11:07:00.746Z,1.00
2022-10-02T11:10:47.055Z,0.75
2022-10-02T11:14:36.079Z,0.63
2022-10-02T11:18:35.290Z,0.98
2022-10-02T11:22:07.344Z,1.00
2022-10-02T11:25:48.268Z,0.80
2022-10-02T11:29:34.055Z,1.10
2022-10-02T11:36:52.726Z,1.10
2022-10-02T11:40:41.497Z,0.98
2022-10-02T11:44:40.757Z,0.90
2022-10-02T11:48:00.933Z,0.88
2022-10-02T11:51:46.307Z,1.23
2022-10-02T11:55:46.188Z,2.30
2022-10-02T11:59:53.009Z,1.80
2022-10-02T12:03:46.747Z,2.60
2022-10-02T12:07:34.458Z,2.85
2022-10-02T12:11:07.985Z,2.10
2022-10-02T12:14:47.405Z,2.50
2022-10-02T12:18:41.942Z,2.08
2022-10-02T12:22:36.946Z,2.22
2022-10-02T12:26:51.170Z,2.30
2022-10-02T12:30:17.945Z,1.60
2022-10-02T12:33:56.290Z,1.63
2022-10-02T12:37:25.413Z,1.70
2022-10-02T12:41:35.431Z,1.70
2022-10-02T12:45:11.513Z,1.73
2022-10-02T12:48:49.270Z,1.55
2022-10-02T12:52:22.790Z,1.75
2022-10-02T12:56:12.145Z,1.20
2022-10-02T12:59:55.750Z,1.40
2022-10-02T13:03:20.838Z,1.65
2022-10-02T13:10:19.333Z,0.90
2022-10-02T13:14:01.086Z,1.00
2022-10-02T13:17:17.284Z,1.20
2022-10-02T13:20:39.825Z,1.00
2022-10-02T13:23:54.240Z,0.82
2022-10-02T13:27:11.586Z,0.85
2022-10-02T13:30:21.580Z,0.80
2022-10-02T13:33:43.353Z,0.77
2022-10-02T13:37:02.425Z,0.93
2022-10-02T13:40:21.663Z,0.80
2022-10-02T13:43:40.829Z,0.95
2022-10-02T13:46:54.811Z,0.93
2022-10-02T13:50:18.045Z,0.80
2022-10-02T13:53:56.025Z,1.13
2022-10-02T13:58:08.606Z,0.88
2022-10-02T14:01:33.969Z,0.90
2022-10-02T14:04:55.303Z,0.50
2022-10-02T14:08:18.882Z,0.70
2022-10-02T14:11:21.003Z,0.88
2022-10-02T14:14:25.770Z,0.40
2022-10-02T14:17:52.070Z,0.47
2022-10-02T14:21:06.281Z,0.70
2022-10-02T14:24:55.193Z,0.93
2022-10-02T14:28:19.117Z,0.80
2022-10-02T14:32:17.666Z,0.50
2022-10-02T14:35:40.121Z,0.60
2022-10-02T14:38:51.008Z,0.75
2022-10-02T14:42:10.890Z,0.70
2022-10-02T14:46:00.057Z,0.88
2022-10-02T14:49:18.122Z,0.70
2022-10-02T14:52:28.131Z,0.50
2022-10-02T14:55:39.359Z,0.60
2022-10-02T14:58:56.542Z,0.57
2022-10-02T15:02:08.830Z,0.60
2022-10-02T15:05:17.084Z,0.50
2022-10-02T15:08:27.514Z,0.52
2022-10-02T15:11:35.869Z,0.50
2022-10-02T15:14:51.210Z,0.52
2022-10-02T15:17:56.007Z,0.50
2022-10-02T15:21:22.357Z,0.70
2022-10-02T15:24:53.558Z,0.55
2022-10-02T15:28:35.347Z,0.70
2022-10-02T15:32:03.485Z,1.30
2022-10-02T15:35:08.430Z,1.08
2022-10-02T15:38:29.018Z,0.60
2022-10-02T15:41:53.917Z,0.52
2022-10-02T15:45:06.261Z,0.60
2022-10-02T15:48:33.737Z,0.55
2022-10-02T15:52:04.690Z,0.73
2022-10-02T15:55:28.845Z,0.52
2022-10-02T15:58:49.773Z,0.87
2022-10-02T16:02:10.819Z,0.40
2022-10-02T16:05:24.709Z,0.40
2022-10-02T16:09:13.649Z,0.40
2022-10-02T16:13:04.550Z,1.13
2022-10-02T16:16:25.283Z,0.60
2022-10-02T16:19:58.228Z,0.90
2022-10-02T16:23:06.834Z,0.68
2022-10-02T16:26:27.633Z,0.68
2022-10-02T16:29:30.084Z,0.52
2022-10-02T16:32:32.094Z,0.35
2022-10-02T16:35:48.951Z,0.70
2022-10-02T16:42:55.837Z,0.60
2022-10-02T16:46:51.930Z,1.13
2022-10-02T16:50:19.956Z,0.60
2022-10-02T16:53:42.188Z,0.80
2022-10-02T16:57:20.374Z,0.68
2022-10-02T17:00:55.082Z,0.38
2022-10-02T17:04:42.974Z,0.70
2022-10-02T17:08:11.173Z,1.00
2022-10-02T17:11:38.064Z,0.73
2022-10-02T17:15:25.416Z,0.80
2022-10-02T17:18:50.766Z,0.70
2022-10-02T17:22:34.692Z,0.47
2022-10-02T17:26:09.093Z,0.73
2022-10-02T17:30:09.245Z,0.80
2022-10-02T17:33:54.749Z,1.00
2022-10-02T17:37:17.359Z,0.50
2022-10-02T17:40:54.960Z,0.77
2022-10-02T17:44:45.266Z,0.60
2022-10-02T17:48:07.613Z,0.52
2022-10-02T17:52:00.040Z,0.52
2022-10-02T17:55:40.215Z,0.60
2022-10-02T17:59:21.070Z,0.63
2022-10-02T18:03:00.987Z,0.60
2022-10-02T18:06:48.630Z,0.90
2022-10-02T18:10:13.773Z,0.85
2022-10-02T18:17:36.874Z,0.65
2022-10-02T18:21:23.869Z,0.50
2022-10-02T18:24:55.225Z,0.60
2022-10-02T18:28:46.096Z,1.05
2022-10-02T18:32:20.923Z,0.70
2022-10-02T18:35:55.703Z,0.88
2022-10-02T18:39:41.064Z,0.85
2022-10-02T18:43:24.279Z,0.50
2022-10-02T18:47:13.863Z,0.85
2022-10-02T18:51:14.639Z,0.80
2022-10-02T18:54:51.406Z,0.80
2022-10-02T18:58:26.248Z,0.75
2022-10-02T19:01:56.615Z,0.90
2022-10-02T19:05:30.742Z,0.85
2022-10-02T19:09:07.607Z,0.80
2022-10-02T19:12:31.331Z,0.85
2022-10-02T19:15:58.299Z,1.13
2022-10-02T19:19:24.429Z,1.20
2022-10-02T19:22:47.311Z,0.82
2022-10-02T19:26:23.610Z,0.55
2022-10-02T19:29:56.334Z,0.60
2022-10-02T19:33:32.132Z,0.80
2022-10-02T19:36:58.682Z,0.60
2022-10-02T19:40:34.084Z,0.75
2022-10-02T19:47:46.947Z,1.00
2022-10-02T19:51:18.503Z,0.70
2022-10-02T19:54:41.279Z,0.82
2022-10-02T19:58:17.330Z,0.80
2022-10-02T20:01:46.901Z,0.70
2022-10-02T20:05:22.319Z,0.50
2022-10-02T20:12:29.038Z,0.70
2022-10-02T20:16:16.608Z,0.70
2022-10-02T20:19:57.838Z,0.80
2022-10-02T20:23:30.122Z,0.90
2022-10-02T20:27:01.161Z,0.77
2022-10-02T20:30:28.610Z,0.75
2022-10-02T20:33:57.106Z,0.77
2022-10-02T20:37:26.243Z,0.68
2022-10-02T20:40:53.235Z,0.60
2022-10-02T20:44:15.675Z,0.60
2022-10-02T20:48:12.203Z,0.60
2022-10-02T20:52:01.873Z,0.70
2022-10-02T20:55:33.421Z,0.57
2022-10-02T20:59:33.372Z,0.60
2022-10-02T21:03:37.938Z,0.80
2022-10-02T21:07:04.253Z,0.90
2022-10-02T21:10:45.500Z,0.80
2022-10-02T21:14:18.310Z,0.85
2022-10-02T21:18:08.665Z,1.00
2022-10-02T21:22:16.627Z,0.85
2022-10-02T21:26:08.758Z,0.75
2022-10-02T21:29:53.837Z,0.60
2022-10-02T21:33:30.378Z,0.80
2022-10-02T21:37:12.911Z,0.75
2022-10-02T21:41:11.505Z,0.90
2022-10-02T21:45:23.978Z,0.85
2022-10-02T21:49:13.664Z,0.80
2022-10-02T21:53:11.287Z,0.90
2022-10-02T21:56:58.113Z,0.80
2022-10-02T22:00:23.219Z,0.80
2022-10-02T22:07:29.175Z,0.85
2022-10-02T22:11:04.481Z,1.60
2022-10-02T22:14:44.822Z,0.93
2022-10-02T22:18:12.502Z,0.75
2022-10-02T22:21:53.668Z,1.27
2022-10-02T22:25:49.754Z,0.93
2022-10-02T22:29:24.566Z,0.93
2022-10-02T22:33:11.109Z,0.88
2022-10-02T22:36:49.802Z,0.93
2022-10-02T22:40:23.247Z,0.90
2022-10-02T22:43:50.902Z,0.77
2022-10-02T22:47:29.798Z,0.90
2022-10-02T22:51:04.315Z,0.70
2022-10-02T22:54:34.694Z,0.67
2022-10-02T22:58:19.361Z,0.55
2022-10-02T23:01:54.220Z,0.77
2022-10-02T23:05:41.216Z,0.82
2022-10-02T23:09:18.342Z,0.80
2022-10-02T23:12:45.832Z,0.90
2022-10-02T23:16:20.160Z,0.75
2022-10-02T23:19:58.317Z,0.75
2022-10-02T23:23:33.574Z,0.90
2022-10-02T23:27:09.013Z,0.63
2022-10-02T23:34:17.826Z,0.50
2022-10-02T23:38:01.450Z,0.80
2022-10-02T23:41:47.064Z,0.60
2022-10-02T23:45:37.366Z,0.70
2022-10-02T23:48:59.683Z,0.60
2022-10-02T23:52:49.666Z,0.68
2022-10-02T23:56:33.692Z,0.70
